Time;durP1;ratioP1;P1;durP2;ratioP2;P2;SDS_P1;SDS_P2;PMS_P1;PMS_P2;Temp;Humidity;BMP_temperature;BMP_pressure;BME280_temperature;BME280_humidity;BME280_pressure;Samples;Min_cycle;Max_cycle;Signal;HPM_P1;HPM_P2
2023/06/18 00:01:04;;;;;;;4.70;3.08;;;;;;;16.09;100.00;99715.19;6198688;28;20462;-70
2023/06/18 00:04:05;;;;;;;5.13;3.20;;;;;;;16.02;100.00;99710.59;6200860;28;20061;-70
2023/06/18 00:07:05;;;;;;;4.28;3.10;;;;;;;15.99;100.00;99711.72;6195812;28;20291;-70
2023/06/18 00:10:07;;;;;;;4.03;3.33;;;;;;;16.07;100.00;99708.41;6196699;28;20061;-70
2023/06/18 00:13:08;;;;;;;10.60;4.15;;;;;;;16.06;100.00;99715.47;6179563;28;20534;-70
2023/06/18 00:16:08;;;;;;;7.05;3.50;;;;;;;16.01;100.00;99716.84;6195980;28;20047;-70
2023/06/18 00:19:09;;;;;;;5.75;3.70;;;;;;;15.95;100.00;99712.97;6195032;28;20057;-70
2023/06/18 00:22:15;;;;;;;5.97;3.83;;;;;;;15.82;100.00;99709.78;6200337;28;20410;-71
2023/06/18 00:25:16;;;;;;;5.03;3.40;;;;;;;15.83;100.00;99719.31;6202053;28;20059;-71
2023/06/18 00:28:16;;;;;;;4.93;3.53;;;;;;;15.84;100.00;99716.56;6197107;28;20061;-70
2023/06/18 00:31:17;;;;;;;5.47;3.92;;;;;;;15.79;100.00;99718.75;6208442;28;20409;-70
2023/06/18 00:34:18;;;;;;;6.43;4.32;;;;;;;15.84;100.00;99718.34;6208673;28;20044;-70
2023/06/18 00:37:20;;;;;;;5.68;4.18;;;;;;;15.82;100.00;99720.28;6195986;28;20050;-69
2023/06/18 00:40:21;;;;;;;8.75;4.13;;;;;;;15.88;100.00;99712.69;6198363;28;20046;-70
2023/06/18 00:43:21;;;;;;;5.93;4.15;;;;;;;15.81;100.00;99713.34;6194687;28;20062;-70
2023/06/18 00:46:24;;;;;;;5.82;4.35;;;;;;;15.71;100.00;99705.44;6202043;28;20057;-70
2023/06/18 00:49:25;;;;;;;6.45;4.63;;;;;;;15.74;100.00;99705.19;6205576;28;20054;-70
2023/06/18 00:52:27;;;;;;;10.15;5.15;;;;;;;15.73;100.00;99711.41;6197936;28;20058;-70
2023/06/18 00:55:30;;;;;;;5.63;4.57;;;;;;;15.65;100.00;99712.06;6199802;28;20100;-70
2023/06/18 00:58:31;;;;;;;;;;;;;;;15.61;100.00;99713.28;6196960;28;20133;-70
2023/06/18 01:01:36;;;;;;;8.13;4.93;;;;;;;15.60;100.00;99708.97;6196746;28;19969;-70
2023/06/18 01:04:38;;;;;;;11.60;4.97;;;;;;;15.65;100.00;99712.06;6193408;28;20038;-70
2023/06/18 01:07:42;;;;;;;8.93;5.57;;;;;;;15.62;100.00;99719.38;6201548;28;20046;-70
2023/06/18 01:10:43;;;;;;;7.97;4.97;;;;;;;15.55;100.00;99713.00;6195670;28;20057;-70
2023/06/18 01:13:44;;;;;;;6.95;4.93;;;;;;;15.48;100.00;99710.91;6191835;28;20061;-70
2023/06/18 01:16:46;;;;;;;7.10;5.40;;;;;;;15.49;100.00;99702.03;6195002;28;20054;-70
2023/06/18 01:19:55;;;;;;;8.52;5.03;;;;;;;15.47;100.00;99706.59;6214098;28;20046;-70
2023/06/18 01:23:06;;;;;;;6.70;4.85;;;;;;;15.37;100.00;99700.47;6204494;28;20057;-70
2023/06/18 01:26:07;;;;;;;8.27;5.32;;;;;;;15.34;100.00;99702.53;6194730;28;20042;-69
2023/06/18 01:29:10;;;;;;;7.55;4.75;;;;;;;15.27;100.00;99700.44;6194806;28;20088;-70
2023/06/18 01:32:11;;;;;;;6.40;4.70;;;;;;;15.29;100.00;99701.13;6195939;28;20367;-69
2023/06/18 01:35:15;;;;;;;6.88;4.78;;;;;;;15.34;100.00;99703.38;6200194;28;20053;-69
2023/06/18 01:38:24;;;;;;;5.72;4.28;;;;;;;15.37;100.00;99697.03;6193978;28;20436;-70
2023/06/18 01:41:28;;;;;;;6.75;4.47;;;;;;;15.30;100.00;99701.97;6202787;28;20061;-69
2023/06/18 01:44:30;;;;;;;7.32;5.20;;;;;;;15.35;100.00;99704.22;6202536;28;20065;-69
2023/06/18 01:47:32;;;;;;;7.10;5.30;;;;;;;15.23;100.00;99700.81;6296102;28;20050;-70
2023/06/18 01:50:35;;;;;;;6.55;4.70;;;;;;;15.38;100.00;99699.53;6193546;28;20050;-69
2023/06/18 01:53:37;;;;;;;9.25;5.13;;;;;;;15.23;100.00;99701.66;6301863;27;20058;-70
2023/06/18 01:56:38;;;;;;;6.25;4.80;;;;;;;15.20;100.00;99707.19;6191294;28;20054;-70
2023/06/18 01:59:43;;;;;;;7.93;5.03;;;;;;;15.21;100.00;99700.94;6199582;28;20054;-70
2023/06/18 02:02:44;;;;;;;5.93;4.75;;;;;;;15.15;100.00;99693.59;6192687;28;20760;-70
2023/06/18 02:05:45;;;;;;;6.40;4.45;;;;;;;15.10;100.00;99693.16;6193364;28;20054;-70
2023/06/18 02:08:48;;;;;;;7.40;4.63;;;;;;;15.06;100.00;99695.22;6292745;27;20051;-70
2023/06/18 02:11:49;;;;;;;7.32;4.88;;;;;;;15.18;100.00;99703.03;6193532;28;20046;-70
2023/06/18 02:14:52;;;;;;;7.00;4.32;;;;;;;15.20;100.00;99701.94;6195718;28;20561;-71
2023/06/18 02:17:52;;;;;;;6.40;4.70;;;;;;;15.10;100.00;99704.50;6196661;28;20056;-70
2023/06/18 02:20:53;;;;;;;7.60;5.20;;;;;;;15.14;100.00;99699.00;6193683;28;20425;-70
2023/06/18 02:23:56;;;;;;;6.28;4.60;;;;;;;15.16;100.00;99707.59;6195361;28;20082;-70
2023/06/18 02:26:57;;;;;;;6.50;4.68;;;;;;;15.12;100.00;99714.91;6208649;28;20099;-70
2023/06/18 02:30:03;;;;;;;7.07;4.47;;;;;;;15.17;100.00;99717.13;6195018;28;20050;-70
2023/06/18 02:33:07;;;;;;;6.78;4.57;;;;;;;15.01;100.00;99721.06;6198853;28;20719;-71
2023/06/18 02:36:09;;;;;;;6.60;4.25;;;;;;;14.99;100.00;99714.25;6188700;28;20043;-70
2023/06/18 02:39:10;;;;;;;7.70;4.70;;;;;;;14.97;100.00;99719.66;6190764;28;20097;-70
2023/06/18 02:42:20;;;;;;;11.10;5.03;;;;;;;14.89;100.00;99730.81;6201829;28;20058;-70
2023/06/18 02:45:25;;;;;;;6.68;5.28;;;;;;;14.91;100.00;99725.44;6192257;28;20050;-71
2023/06/18 02:48:26;;;;;;;7.20;4.70;;;;;;;14.96;100.00;99733.75;6200139;28;20058;-70
2023/06/18 02:51:29;;;;;;;8.98;4.75;;;;;;;15.06;100.00;99736.44;6191139;28;20057;-70
2023/06/18 02:54:30;;;;;;;9.20;4.68;;;;;;;15.06;100.00;99736.44;6189266;28;20054;-70
2023/06/18 02:57:34;;;;;;;7.10;4.32;;;;;;;15.08;100.00;99742.41;6176300;28;20478;-71
2023/06/18 03:00:37;;;;;;;9.20;4.45;;;;;;;15.07;100.00;99746.81;6186416;28;20516;-71
2023/06/18 03:03:40;;;;;;;8.48;5.25;;;;;;;15.09;100.00;99746.66;6182994;28;20140;-71
2023/06/18 03:06:41;;;;;;;5.72;3.97;;;;;;;15.15;100.00;99748.78;6184360;28;20066;-70
2023/06/18 03:09:42;;;;;;;6.88;4.32;;;;;;;15.11;100.00;99757.88;6186339;28;20188;-71
2023/06/18 03:12:43;;;;;;;6.40;3.85;;;;;;;15.03;100.00;99752.44;6189606;28;20193;-71
2023/06/18 03:15:43;;;;;;;5.90;4.22;;;;;;;15.02;100.00;99753.44;6183309;28;20058;-71
2023/06/18 03:18:46;;;;;;;5.28;4.07;;;;;;;15.07;100.00;99752.09;6187846;28;20085;-71
2023/06/18 03:21:49;;;;;;;6.38;3.75;;;;;;;15.19;100.00;99755.44;6194699;28;20063;-70
2023/06/18 03:24:50;;;;;;;7.07;4.13;;;;;;;15.16;100.00;99753.09;6190889;28;20065;-71
2023/06/18 03:27:51;;;;;;;6.63;4.22;;;;;;;15.15;100.00;99756.66;6190950;28;20149;-71
2023/06/18 03:30:52;;;;;;;7.30;4.68;;;;;;;15.22;100.00;99749.94;6194448;28;20505;-71
2023/06/18 03:33:52;;;;;;;6.53;4.43;;;;;;;15.29;100.00;99752.88;6196195;28;20464;-70
2023/06/18 03:36:53;;;;;;;7.22;4.78;;;;;;;15.32;100.00;99758.72;6187398;28;20053;-71
2023/06/18 03:39:54;;;;;;;8.57;4.95;;;;;;;15.39;100.00;99758.19;6196181;28;20486;-68
2023/06/18 03:42:55;;;;;;;6.63;4.78;;;;;;;15.46;100.00;99746.16;6194525;28;20107;-68
2023/06/18 03:45:55;;;;;;;8.50;5.75;;;;;;;15.57;100.00;99748.72;6190921;28;20047;-71
2023/06/18 03:48:56;;;;;;;9.27;5.70;;;;;;;15.62;100.00;99761.44;6193231;28;20054;-71
2023/06/18 03:51:57;;;;;;;9.35;5.55;;;;;;;15.65;100.00;99766.47;6187559;28;20122;-71
2023/06/18 03:54:58;;;;;;;9.00;5.85;;;;;;;15.70;100.00;99766.88;6191474;28;20046;-69
2023/06/18 03:58:01;;;;;;;10.82;5.78;;;;;;;15.75;100.00;99766.50;6193137;28;20050;-69
2023/06/18 04:01:02;;;;;;;9.40;6.45;;;;;;;15.74;100.00;99763.03;6192768;28;20081;-70
2023/06/18 04:04:03;;;;;;;9.82;6.57;;;;;;;15.88;100.00;99759.22;6185080;28;20046;-70
2023/06/18 04:07:04;;;;;;;9.52;6.43;;;;;;;15.93;100.00;99767.53;6177227;28;20062;-69
2023/06/18 04:10:10;;;;;;;15.55;8.05;;;;;;;16.03;100.00;99760.47;6192161;28;20061;-71
2023/06/18 04:13:15;;;;;;;13.43;8.02;;;;;;;16.29;100.00;99765.25;6190815;28;20054;-70
2023/06/18 04:16:18;;;;;;;12.00;8.32;;;;;;;16.16;100.00;99773.38;6186884;28;20475;-69
2023/06/18 04:19:19;;;;;;;17.20;9.25;;;;;;;16.52;100.00;99774.53;6195262;28;20054;-69
2023/06/18 04:22:20;;;;;;;11.77;8.82;;;;;;;16.77;100.00;99771.47;6192327;28;20386;-68
2023/06/18 04:25:21;;;;;;;11.80;8.70;;;;;;;16.82;100.00;99777.16;6187875;28;20103;-69
2023/06/18 04:28:22;;;;;;;12.10;8.57;;;;;;;17.06;100.00;99779.34;6284585;28;20107;-71
2023/06/18 04:31:24;;;;;;;14.05;8.95;;;;;;;17.10;100.00;99772.81;6178507;28;20160;-69
2023/06/18 04:34:27;;;;;;;12.55;8.00;;;;;;;17.15;100.00;99786.41;6188746;28;20060;-72
2023/06/18 04:37:27;;;;;;;13.20;8.55;;;;;;;17.28;100.00;99789.56;6196304;28;20482;-71
2023/06/18 04:40:28;;;;;;;12.35;8.07;;;;;;;17.25;100.00;99792.47;6190968;28;20046;-69
2023/06/18 04:43:29;;;;;;;14.18;9.27;;;;;;;17.26;100.00;99791.53;6192901;28;20050;-69
2023/06/18 04:46:30;;;;;;;12.27;8.43;;;;;;;17.27;100.00;99802.88;6191086;28;20066;-69
2023/06/18 04:49:30;;;;;;;11.43;8.18;;;;;;;17.36;100.00;99802.03;6188073;28;20058;-69
2023/06/18 04:52:34;;;;;;;13.77;9.07;;;;;;;17.72;100.00;99804.81;6193411;28;20510;-71
2023/06/18 04:55:36;;;;;;;12.60;8.57;;;;;;;17.67;100.00;99807.06;6190202;28;20049;-69
2023/06/18 04:58:40;;;;;;;;;;;;;;;17.79;100.00;99810.34;6193174;28;20043;-69
2023/06/18 05:01:41;;;;;;;11.68;8.30;;;;;;;18.17;100.00;99813.78;6194329;28;19926;-69
2023/06/18 05:04:41;;;;;;;12.25;8.73;;;;;;;17.78;100.00;99817.44;6189350;28;20799;-71
2023/06/18 05:07:43;;;;;;;12.05;8.40;;;;;;;18.08;100.00;99819.00;6188827;28;20054;-71
2023/06/18 05:10:44;;;;;;;11.60;8.90;;;;;;;18.39;100.00;99815.16;6194658;28;20080;-70
2023/06/18 05:13:47;;;;;;;13.68;8.18;;;;;;;18.48;100.00;99820.38;6296346;28;20050;-69
2023/06/18 05:16:48;;;;;;;10.25;8.02;;;;;;;18.62;100.00;99832.25;6276290;28;20503;-70
2023/06/18 05:19:50;;;;;;;13.52;8.05;;;;;;;18.71;100.00;99822.56;6191283;28;20173;-69
2023/06/18 05:22:51;;;;;;;13.57;8.80;;;;;;;18.85;100.00;99832.63;6192144;28;20063;-69
2023/06/18 05:25:53;;;;;;;10.43;7.40;;;;;;;18.93;100.00;99827.41;6192795;28;20052;-69
2023/06/18 05:28:54;;;;;;;11.43;7.73;;;;;;;19.05;100.00;99840.41;6183487;28;20412;-71
2023/06/18 05:31:57;;;;;;;21.02;8.80;;;;;;;19.26;100.00;99838.25;6191010;28;20054;-69
2023/06/18 05:34:59;;;;;;;11.10;7.78;;;;;;;19.35;100.00;99836.47;6188531;28;20047;-69
2023/06/18 05:38:00;;;;;;;;;;;;;;;19.57;100.00;99844.88;6189814;28;20050;-72
2023/06/18 05:41:01;;;;;;;11.63;7.60;;;;;;;19.64;100.00;99844.13;6187914;28;19933;-71
2023/06/18 05:44:01;;;;;;;12.25;8.07;;;;;;;19.77;100.00;99850.78;6190097;28;20065;-71
2023/06/18 05:47:02;;;;;;;10.25;7.40;;;;;;;20.00;100.00;99862.50;6292000;28;20704;-71
2023/06/18 05:50:03;;;;;;;13.85;7.68;;;;;;;20.13;98.42;99857.56;6188260;28;20142;-71
2023/06/18 05:53:04;;;;;;;11.02;7.68;;;;;;;20.16;98.70;99858.25;6188509;28;20073;-71
2023/06/18 05:56:05;;;;;;;9.50;7.57;;;;;;;20.22;96.95;99852.31;6178638;28;20061;-71
2023/06/18 05:59:06;;;;;;;11.55;7.57;;;;;;;20.34;95.80;99864.25;6190049;28;20076;-71
2023/06/18 06:02:07;;;;;;;8.50;6.72;;;;;;;20.47;94.63;99862.00;6191366;28;20053;-71
2023/06/18 06:05:08;;;;;;;11.17;7.07;;;;;;;20.68;91.83;99866.03;6188757;28;20042;-71
2023/06/18 06:08:11;;;;;;;12.83;6.90;;;;;;;20.68;91.63;99864.22;6183862;28;20112;-71
2023/06/18 06:11:14;;;;;;;9.60;7.05;;;;;;;20.83;92.03;99871.53;6189254;28;20116;-71
2023/06/18 06:14:15;;;;;;;10.77;6.75;;;;;;;20.79;88.11;99873.66;6193028;28;20057;-71
2023/06/18 06:17:16;;;;;;;8.00;6.07;;;;;;;20.91;87.61;99871.53;6194907;28;20426;-71
2023/06/18 06:20:16;;;;;;;9.20;6.47;;;;;;;20.94;88.23;99871.22;6194146;28;20054;-71
2023/06/18 06:23:17;;;;;;;9.17;6.77;;;;;;;21.20;88.60;99872.84;6189244;28;20127;-71
2023/06/18 06:26:18;;;;;;;15.87;6.53;;;;;;;21.43;85.55;99867.72;6204436;28;20049;-71
2023/06/18 06:29:19;;;;;;;9.13;6.33;;;;;;;21.64;83.62;99868.00;6198173;28;20051;-71
2023/06/18 06:32:19;;;;;;;7.90;6.43;;;;;;;21.73;81.76;99868.81;6192388;28;20058;-71
2023/06/18 06:35:20;;;;;;;7.67;6.07;;;;;;;21.85;81.59;99877.25;6196613;28;20141;-72
2023/06/18 06:38:21;;;;;;;10.20;6.57;;;;;;;22.09;78.21;99877.16;6194282;28;20088;-71
2023/06/18 06:41:24;;;;;;;8.87;6.50;;;;;;;22.23;78.70;99882.72;6190485;28;20085;-70
2023/06/18 06:44:25;;;;;;;9.63;5.80;;;;;;;22.42;74.14;99882.31;6178792;28;20042;-72
2023/06/18 06:47:28;;;;;;;9.10;6.40;;;;;;;22.50;74.66;99873.47;6179237;28;20057;-72
2023/06/18 06:50:29;;;;;;;6.93;5.70;;;;;;;22.68;77.71;99884.66;6181759;28;20573;-70
2023/06/18 06:53:30;;;;;;;6.83;5.47;;;;;;;22.56;70.00;99885.25;6181438;28;20057;-71
2023/06/18 06:56:31;;;;;;;9.37;5.90;;;;;;;22.85;68.50;99896.00;6176500;28;20127;-70
2023/06/18 06:59:32;;;;;;;8.73;5.50;;;;;;;22.59;70.82;99887.53;6183913;28;20069;-71
2023/06/18 07:02:33;;;;;;;8.70;5.80;;;;;;;22.81;66.64;99885.91;6182118;28;20053;-71
2023/06/18 07:05:37;;;;;;;10.18;5.65;;;;;;;22.67;64.99;99892.81;6190083;28;20538;-70
2023/06/18 07:08:38;;;;;;;7.45;6.10;;;;;;;23.21;66.88;99889.31;6186014;28;20055;-69
2023/06/18 07:11:40;;;;;;;8.02;5.68;;;;;;;23.09;68.10;99887.06;6179994;28;20050;-70
2023/06/18 07:14:41;;;;;;;7.40;5.80;;;;;;;23.10;67.31;99880.75;6179914;28;20059;-70
2023/06/18 07:17:46;;;;;;;9.48;6.53;;;;;;;23.46;65.51;99888.06;6187196;28;20058;-70
2023/06/18 07:20:49;;;;;;;7.82;6.20;;;;;;;23.11;64.11;99892.22;6190142;28;20051;-72
2023/06/18 07:23:50;;;;;;;11.83;5.87;;;;;;;23.20;65.61;99892.97;6184515;28;20081;-71
2023/06/18 07:26:51;;;;;;;8.23;5.97;;;;;;;23.44;63.39;99876.75;6178794;28;20121;-71
2023/06/18 07:29:53;;;;;;;6.93;5.83;;;;;;;23.45;65.93;99882.91;6173623;28;20133;-71
2023/06/18 07:32:54;;;;;;;7.43;5.70;;;;;;;23.88;65.37;99886.63;6169231;28;20051;-71
2023/06/18 07:35:55;;;;;;;7.73;5.93;;;;;;;24.04;61.73;99885.63;6168186;28;20483;-72
2023/06/18 07:38:58;;;;;;;7.15;5.75;;;;;;;24.29;63.06;99893.31;6168154;28;20085;-72
2023/06/18 07:41:59;;;;;;;6.10;5.22;;;;;;;24.48;64.22;99895.41;6185694;28;20053;-71
2023/06/18 07:45:02;;;;;;;8.97;5.67;;;;;;;24.33;62.59;99895.41;6193296;28;20047;-71
2023/06/18 07:48:03;;;;;;;8.27;5.70;;;;;;;24.60;61.93;99890.41;6192146;28;20054;-71
2023/06/18 07:51:07;;;;;;;8.85;5.50;;;;;;;24.23;59.07;99888.72;6191959;28;20086;-71
2023/06/18 07:54:07;;;;;;;6.63;5.28;;;;;;;24.52;58.95;99893.19;6191928;28;20054;-71
2023/06/18 07:57:08;;;;;;;6.23;4.67;;;;;;;24.65;58.14;99892.53;6200266;28;20513;-72
2023/06/18 08:00:10;;;;;;;5.70;4.97;;;;;;;25.30;58.17;99891.50;6197031;28;20085;-72
2023/06/18 08:03:10;;;;;;;;;;;;;;;25.01;56.84;99892.44;6217966;28;20060;-71
2023/06/18 08:06:11;;;;;;;6.82;5.47;;;;;;;25.21;58.06;99894.50;6218066;28;19922;-71
2023/06/18 08:09:12;;;;;;;6.50;4.93;;;;;;;24.95;56.61;99901.22;6220171;28;20050;-72
2023/06/18 08:12:13;;;;;;;8.13;5.00;;;;;;;25.49;55.30;99890.00;6199468;28;20061;-71
2023/06/18 08:15:13;;;;;;;6.87;4.80;;;;;;;25.62;54.37;99894.59;6195737;28;20061;-71
2023/06/18 08:18:14;;;;;;;8.80;5.67;;;;;;;24.78;55.04;99894.50;6195846;28;20417;-71
2023/06/18 08:21:15;;;;;;;7.33;5.53;;;;;;;25.05;55.99;99893.72;6203063;28;20283;-70
2023/06/18 08:24:18;;;;;;;7.50;5.43;;;;;;;24.79;55.85;99890.81;6197468;28;20057;-70
2023/06/18 08:27:19;;;;;;;7.75;4.82;;;;;;;25.57;57.33;99888.19;6203279;28;20306;-71
2023/06/18 08:30:20;;;;;;;6.68;5.10;;;;;;;26.05;53.45;99890.97;6196993;28;20054;-71
2023/06/18 08:33:21;;;;;;;7.43;4.97;;;;;;;26.39;53.25;99899.94;6195985;28;20077;-72
2023/06/18 08:36:22;;;;;;;7.40;5.53;;;;;;;25.25;53.04;99893.94;6196587;28;20398;-71
2023/06/18 08:39:22;;;;;;;7.77;5.37;;;;;;;25.98;52.53;99903.47;6195618;28;20054;-72
2023/06/18 08:42:23;;;;;;;7.57;5.63;;;;;;;26.57;53.06;99892.22;6195440;28;20287;-72
2023/06/18 08:45:24;;;;;;;7.97;5.55;;;;;;;26.99;49.96;99892.06;6196491;28;20046;-71
2023/06/18 08:48:27;;;;;;;7.03;5.07;;;;;;;26.21;51.87;99895.16;6188629;28;20051;-71
2023/06/18 08:51:29;;;;;;;6.45;5.30;;;;;;;26.89;51.00;99901.34;6177615;28;20480;-72
2023/06/18 08:54:34;;;;;;;7.32;6.03;;;;;;;26.81;50.80;99904.22;6182126;28;20058;-71
2023/06/18 08:57:42;;;;;;;7.38;5.53;;;;;;;26.73;51.00;99899.06;6180340;28;20047;-72
2023/06/18 09:00:43;;;;;;;8.07;6.18;;;;;;;25.48;53.13;99903.56;6178078;28;20078;-71
2023/06/18 09:03:49;;;;;;;6.70;5.55;;;;;;;25.16;54.01;99899.56;6183510;28;20501;-72
2023/06/18 09:06:50;;;;;;;5.65;4.93;;;;;;;25.87;49.60;99902.16;6188630;28;20104;-71
2023/06/18 09:09:51;;;;;;;8.43;5.43;;;;;;;25.92;50.30;99900.59;6188839;28;21997;-71
2023/06/18 09:12:58;;;;;;;7.50;5.37;;;;;;;26.77;49.35;99894.94;6184354;28;20050;-71
2023/06/18 09:16:00;;;;;;;8.25;5.25;;;;;;;27.22;47.68;99897.88;6189734;28;20055;-71
2023/06/18 09:19:04;;;;;;;6.82;4.70;;;;;;;27.28;48.75;99904.25;6189165;28;20054;-71
2023/06/18 09:22:13;;;;;;;6.90;4.88;;;;;;;26.96;47.67;99898.66;6190506;28;20054;-71
2023/06/18 09:25:18;;;;;;;6.15;5.03;;;;;;;27.49;48.50;99887.97;6284753;28;20050;-71
2023/06/18 09:28:20;;;;;;;7.35;5.10;;;;;;;28.05;46.11;99893.84;6189718;28;20050;-72
2023/06/18 09:31:27;;;;;;;7.50;5.45;;;;;;;27.97;43.12;99889.53;6190454;28;20506;-71
2023/06/18 09:34:31;;;;;;;6.63;4.95;;;;;;;28.07;46.32;99875.69;6205680;28;20414;-72
2023/06/18 09:37:31;;;;;;;6.50;5.32;;;;;;;28.64;44.96;99886.56;6195443;28;20051;-72
2023/06/18 09:40:34;;;;;;;5.22;4.57;;;;;;;28.71;45.06;99882.00;6180081;28;20054;-71
2023/06/18 09:43:36;;;;;;;5.05;4.55;;;;;;;28.78;45.94;99877.38;6178553;28;20055;-72
2023/06/18 09:46:37;;;;;;;7.30;5.07;;;;;;;28.14;43.50;99873.78;6191653;28;20386;-71
2023/06/18 09:49:40;;;;;;;7.38;4.85;;;;;;;27.98;44.42;99877.75;6206021;28;20046;-72
2023/06/18 09:52:45;;;;;;;6.32;4.55;;;;;;;28.36;45.63;99874.31;6219658;28;20058;-72
2023/06/18 09:55:48;;;;;;;5.35;4.72;;;;;;;28.69;45.09;99865.28;6219495;28;20081;-72
2023/06/18 09:58:51;;;;;;;8.10;5.10;;;;;;;28.85;45.17;99861.25;6219687;28;20089;-72
2023/06/18 10:01:52;;;;;;;8.73;5.28;;;;;;;28.41;44.27;99863.75;6219316;28;20050;-72
2023/06/18 10:04:55;;;;;;;5.45;4.53;;;;;;;28.27;42.09;99868.38;6195487;28;20054;-72
2023/06/18 10:07:57;;;;;;;6.90;4.88;;;;;;;28.30;41.93;99848.34;6201951;28;20043;-72
2023/06/18 10:10:57;;;;;;;5.63;4.82;;;;;;;28.09;45.91;99852.16;6181559;28;20108;-72
2023/06/18 10:14:05;;;;;;;6.03;4.90;;;;;;;27.87;43.85;99851.63;6193527;28;20456;-71
2023/06/18 10:17:09;;;;;;;4.93;4.40;;;;;;;28.33;45.76;99850.59;6194890;28;20058;-72
2023/06/18 10:20:13;;;;;;;6.00;5.13;;;;;;;28.87;42.65;99849.25;6185483;28;20068;-71
2023/06/18 10:23:17;;;;;;;5.78;4.22;;;;;;;28.30;41.81;99851.03;6187267;28;20489;-72
2023/06/18 10:26:18;;;;;;;5.15;4.45;;;;;;;28.41;42.48;99849.53;6179358;28;20043;-72
2023/06/18 10:29:20;;;;;;;5.97;4.70;;;;;;;28.59;42.24;99852.31;6186461;28;20046;-72
2023/06/18 10:32:21;;;;;;;6.13;4.82;;;;;;;29.13;41.75;99852.78;6186488;28;20051;-72
2023/06/18 10:35:23;;;;;;;6.32;4.60;;;;;;;28.12;42.61;99844.50;6180120;28;20046;-71
2023/06/18 10:38:24;;;;;;;7.50;4.65;;;;;;;27.40;44.71;99834.81;6195961;28;20078;-72
2023/06/18 10:41:27;;;;;;;6.20;4.13;;;;;;;26.26;46.87;99850.75;6199084;28;20436;-71
2023/06/18 10:44:47;;;;;;;5.47;4.60;;;;;;;27.32;46.44;99842.06;6180786;28;20716;-71
2023/06/18 10:47:48;;;;;;;5.47;4.87;;;;;;;26.76;44.98;99844.28;6185041;28;20137;-71
2023/06/18 10:51:14;;;;;;;5.50;4.47;;;;;;;28.51;44.67;99849.91;6191989;28;20064;-71
2023/06/18 10:54:20;;;;;;;5.65;4.57;;;;;;;28.80;43.12;99844.97;6187701;28;20386;-71
2023/06/18 10:57:26;;;;;;;6.28;4.80;;;;;;;28.86;40.90;99847.59;6196973;28;20050;-71
2023/06/18 11:00:36;;;;;;;6.32;4.50;;;;;;;29.32;42.80;99850.94;6187138;28;20127;-71
2023/06/18 11:03:38;;;;;;;5.40;4.50;;;;;;;29.05;40.80;99839.59;6188614;28;20054;-71
2023/06/18 11:06:41;;;;;;;5.13;4.22;;;;;;;29.83;39.97;99835.53;6183993;28;20486;-71
2023/06/18 11:09:51;;;;;;;5.60;4.75;;;;;;;29.67;38.65;99834.25;6192850;28;20137;-71
2023/06/18 11:15:28;;;;;;;4.90;4.25;;;;;;;28.91;41.34;99826.28;6301542;27;20398;-70
2023/06/18 11:18:29;;;;;;;4.30;3.90;;;;;;;29.24;39.56;99827.88;6296478;28;20048;-70
2023/06/18 11:21:31;;;;;;;5.82;4.15;;;;;;;29.21;40.53;99822.94;6292545;28;20055;-71
2023/06/18 11:24:33;;;;;;;5.53;4.50;;;;;;;29.36;38.53;99824.44;6313935;28;20055;-71
2023/06/18 11:27:34;;;;;;;5.38;4.07;;;;;;;30.18;39.18;99832.22;6316203;28;20490;-70
2023/06/18 11:30:36;;;;;;;;;;;;;;;30.64;41.73;99826.19;6295213;28;20060;-71
2023/06/18 11:33:38;;;;;;;4.50;3.65;;;;;;;30.49;39.44;99826.59;6294467;28;19929;-71
2023/06/18 11:36:42;;;;;;;7.05;4.15;;;;;;;30.48;36.44;99824.16;6316578;28;20494;-71
2023/06/18 11:39:43;;;;;;;5.13;4.07;;;;;;;30.63;38.60;99818.34;6309805;28;20592;-72
2023/06/18 11:42:48;;;;;;;;;;;;;;;30.68;37.99;99813.06;6316918;28;20060;-72
2023/06/18 11:45:51;;;;;;;6.03;4.15;;;;;;;29.93;39.15;99819.69;6316952;28;20434;-72
2023/06/18 11:48:52;;;;;;;5.00;4.20;;;;;;;30.30;41.10;99815.09;6316984;28;20051;-72
2023/06/18 11:51:56;;;;;;;;;;;;;;;30.16;38.07;99820.84;6310521;28;20075;-72
2023/06/18 11:55:03;;;;;;;3.97;3.58;;;;;;;29.75;39.17;99811.66;6315188;28;19922;-72
2023/06/18 11:58:07;;;;;;;5.47;3.90;;;;;;;28.71;40.55;99807.66;6314338;28;20460;-71
2023/06/18 12:01:10;;;;;;;6.63;4.45;;;;;;;29.59;40.13;99810.34;6305365;28;20478;-71
2023/06/18 12:04:11;;;;;;;4.78;4.13;;;;;;;29.80;40.81;99801.88;6315906;28;20040;-71
2023/06/18 12:07:16;;;;;;;5.30;4.18;;;;;;;30.21;41.08;99811.06;6310201;28;20410;-70
2023/06/18 12:10:19;;;;;;;5.35;4.10;;;;;;;29.39;39.71;99802.53;6338738;28;20052;-71
2023/06/18 12:13:30;;;;;;;9.55;4.22;;;;;;;30.36;41.04;99802.59;6316001;28;20405;-71
2023/06/18 12:16:35;;;;;;;5.22;3.85;;;;;;;30.32;39.04;99802.22;6294061;28;20053;-71
2023/06/18 12:19:40;;;;;;;5.07;4.10;;;;;;;29.75;40.30;99796.34;6306354;28;20460;-71
2023/06/18 12:22:41;;;;;;;5.95;4.38;;;;;;;29.20;41.67;99796.28;6306735;28;20064;-71
2023/06/18 12:25:43;;;;;;;5.05;3.95;;;;;;;28.12;41.37;99795.41;6298935;28;20076;-71
2023/06/18 12:28:44;;;;;;;4.70;3.97;;;;;;;28.79;42.93;99790.44;6296789;28;20098;-71
2023/06/18 12:32:03;;;;;;;4.53;3.95;;;;;;;29.61;41.39;99778.69;6298899;28;20434;-71
2023/06/18 12:35:14;;;;;;;4.38;3.83;;;;;;;29.43;40.22;99795.66;6295340;28;20098;-71
2023/06/18 12:38:14;;;;;;;5.13;4.10;;;;;;;29.03;40.83;99788.78;6298582;28;20045;-71
2023/06/18 12:41:29;;;;;;;7.63;4.03;;;;;;;28.94;42.75;99790.09;6298436;28;20087;-71
2023/06/18 12:44:31;;;;;;;5.13;3.90;;;;;;;28.93;42.12;99783.94;6296093;28;20051;-70
2023/06/18 12:47:37;;;;;;;4.70;3.75;;;;;;;29.35;41.87;99787.91;6294563;28;20083;-71
2023/06/18 12:50:40;;;;;;;4.10;3.67;;;;;;;28.94;41.03;99780.19;6294944;28;20479;-71
2023/06/18 12:53:41;;;;;;;5.65;4.00;;;;;;;28.67;41.33;99792.19;6291472;28;20124;-71
2023/06/18 12:56:49;;;;;;;4.32;3.92;;;;;;;28.38;41.95;99788.25;6296251;28;20053;-71
2023/06/18 12:59:51;;;;;;;5.35;3.85;;;;;;;28.09;43.19;99780.56;6292930;28;20155;-72
2023/06/18 13:02:52;;;;;;;4.72;3.67;;;;;;;28.06;43.29;99790.91;6295652;28;20053;-71
2023/06/18 13:05:52;;;;;;;8.32;4.22;;;;;;;27.89;43.67;99783.34;6297143;28;20406;-71
2023/06/18 13:08:57;;;;;;;4.80;4.18;;;;;;;28.09;43.89;99787.81;6297361;28;20573;-71
2023/06/18 13:11:58;;;;;;;7.53;4.53;;;;;;;28.43;42.57;99786.53;6291023;28;20056;-71
2023/06/18 13:14:59;;;;;;;5.32;4.18;;;;;;;28.37;42.41;99784.72;6278236;28;20048;-71
2023/06/18 13:18:00;;;;;;;6.60;3.78;;;;;;;28.99;42.82;99781.38;6272661;28;20041;-71
2023/06/18 13:21:02;;;;;;;5.40;3.80;;;;;;;29.61;41.82;99779.53;6293971;28;20055;-71
2023/06/18 13:24:03;;;;;;;5.75;4.30;;;;;;;30.00;39.02;99780.09;6296757;28;20044;-70
2023/06/18 13:27:04;;;;;;;5.40;4.18;;;;;;;30.49;40.95;99790.78;6297864;28;20114;-70
2023/06/18 13:30:05;;;;;;;;;;;;;;;30.36;38.73;99778.38;6298485;28;20048;-71
2023/06/18 13:33:06;;;;;;;4.30;3.88;;;;;;;30.15;39.42;99777.00;6296432;28;19920;-70
2023/06/18 13:36:08;;;;;;;4.32;3.08;;;;;;;28.97;37.53;99768.16;6296009;28;20475;-71
2023/06/18 13:39:09;;;;;;;4.80;3.72;;;;;;;29.77;41.96;99783.47;6297364;28;20072;-71
2023/06/18 13:42:10;;;;;;;3.83;3.20;;;;;;;29.66;41.69;99781.53;6297695;28;20058;-71
2023/06/18 13:45:11;;;;;;;4.43;3.45;;;;;;;29.23;41.25;99775.19;6296175;28;20047;-71
2023/06/18 13:48:12;;;;;;;4.13;3.33;;;;;;;28.32;42.30;99774.66;6295972;28;20133;-71
2023/06/18 13:51:14;;;;;;;4.15;3.75;;;;;;;28.12;42.37;99776.63;6288521;28;20513;-72
2023/06/18 13:54:15;;;;;;;5.03;3.42;;;;;;;27.84;44.38;99764.38;6287829;28;20135;-70
2023/06/18 13:57:20;;;;;;;4.47;3.97;;;;;;;27.88;45.88;99768.31;6290033;28;20496;-70
2023/06/18 14:00:21;;;;;;;5.38;3.67;;;;;;;27.96;43.17;99767.22;6297010;28;20052;-70
2023/06/18 14:03:22;;;;;;;5.03;3.85;;;;;;;27.79;45.16;99769.56;6293929;28;20040;-70
2023/06/18 14:06:23;;;;;;;4.15;3.60;;;;;;;27.39;43.71;99772.38;6290757;28;20048;-70
2023/06/18 14:09:24;;;;;;;4.00;3.63;;;;;;;28.06;46.08;99772.13;6295846;28;20498;-70
2023/06/18 14:12:26;;;;;;;4.03;3.60;;;;;;;28.67;43.50;99774.22;6295467;28;20110;-70
2023/06/18 14:15:27;;;;;;;4.13;3.35;;;;;;;28.65;43.00;99768.25;6295552;28;20040;-70
2023/06/18 14:18:29;;;;;;;4.30;3.55;;;;;;;28.32;41.44;99761.25;6296742;28;20051;-70